sensor_id;sensor_type;location;lat;lon;timestamp;P1;durP1;ratioP1;P2;durP2;ratioP2
20884;SDS011;10602;48.000;9.654;2022-09-30T00:00:44;6.07;;;4.57;;
20884;SDS011;10602;48.000;9.654;2022-09-30T00:03:12;4.80;;;4.30;;
20884;SDS011;10602;48.000;9.654;2022-09-30T00:05:40;4.40;;;4.00;;
20884;SDS011;10602;48.000;9.654;2022-09-30T00:08:07;4.47;;;4.07;;
20884;SDS011;10602;48.000;9.654;2022-09-30T00:10:35;4.97;;;4.27;;
20884;SDS011;10602;48.000;9.654;2022-09-30T00:13:02;4.90;;;3.90;;
20884;SDS011;10602;48.000;9.654;2022-09-30T00:15:30;8.60;;;4.53;;
20884;SDS011;10602;48.000;9.654;2022-09-30T00:17:57;5.20;;;4.63;;
20884;SDS011;10602;48.000;9.654;2022-09-30T00:20:25;6.67;;;5.00;;
20884;SDS011;10602;48.000;9.654;2022-09-30T00:22:52;4.50;;;4.00;;
20884;SDS011;10602;48.000;9.654;2022-09-30T00:25:20;4.37;;;3.60;;
20884;SDS011;10602;48.000;9.654;2022-09-30T00:27:48;3.90;;;3.50;;
20884;SDS011;10602;48.000;9.654;2022-09-30T00:30:15;5.03;;;3.67;;
20884;SDS011;10602;48.000;9.654;2022-09-30T00:32:43;4.47;;;3.90;;
20884;SDS011;10602;48.000;9.654;2022-09-30T00:35:10;4.17;;;3.77;;
20884;SDS011;10602;48.000;9.654;2022-09-30T00:37:38;4.40;;;4.00;;
20884;SDS011;10602;48.000;9.654;2022-09-30T00:40:05;4.50;;;4.00;;
20884;SDS011;10602;48.000;9.654;2022-09-30T00:42:35;4.87;;;4.23;;
20884;SDS011;10602;48.000;9.654;2022-09-30T00:45:09;5.37;;;4.20;;
20884;SDS011;10602;48.000;9.654;2022-09-30T00:47:49;4.50;;;3.93;;
20884;SDS011;10602;48.000;9.654;2022-09-30T00:50:27;3.93;;;3.40;;
20884;SDS011;10602;48.000;9.654;2022-09-30T00:53:11;4.13;;;3.73;;
20884;SDS011;10602;48.000;9.654;2022-09-30T01:01:10;6.50;;;4.93;;
20884;SDS011;10602;48.000;9.654;2022-09-30T01:03:40;10.17;;;5.30;;
20884;SDS011;10602;48.000;9.654;2022-09-30T01:06:10;11.87;;;4.63;;
20884;SDS011;10602;48.000;9.654;2022-09-30T01:08:38;29.37;;;5.17;;
20884;SDS011;10602;48.000;9.654;2022-09-30T01:11:06;19.87;;;5.50;;
20884;SDS011;10602;48.000;9.654;2022-09-30T01:13:34;22.13;;;5.70;;
20884;SDS011;10602;48.000;9.654;2022-09-30T01:16:24;14.60;;;5.23;;
20884;SDS011;10602;48.000;9.654;2022-09-30T01:19:07;11.83;;;4.90;;
20884;SDS011;10602;48.000;9.654;2022-09-30T01:37:50;5.17;;;4.67;;
20884;SDS011;10602;48.000;9.654;2022-09-30T01:40:23;5.77;;;4.77;;
20884;SDS011;10602;48.000;9.654;2022-09-30T01:42:57;6.37;;;5.27;;
20884;SDS011;10602;48.000;9.654;2022-09-30T01:45:46;5.40;;;4.60;;
20884;SDS011;10602;48.000;9.654;2022-09-30T01:48:17;5.23;;;4.73;;
20884;SDS011;10602;48.000;9.654;2022-09-30T01:51:06;5.27;;;4.77;;
20884;SDS011;10602;48.000;9.654;2022-09-30T01:56:42;5.17;;;4.67;;
20884;SDS011;10602;48.000;9.654;2022-09-30T02:01:49;5.40;;;4.90;;
20884;SDS011;10602;48.000;9.654;2022-09-30T02:04:31;5.60;;;5.00;;
20884;SDS011;10602;48.000;9.654;2022-09-30T02:07:07;5.17;;;4.67;;
20884;SDS011;10602;48.000;9.654;2022-09-30T02:09:37;7.47;;;5.53;;
20884;SDS011;10602;48.000;9.654;2022-09-30T02:12:07;5.87;;;5.27;;
20884;SDS011;10602;48.000;9.654;2022-09-30T02:14:45;7.03;;;5.20;;
20884;SDS011;10602;48.000;9.654;2022-09-30T02:17:18;6.10;;;5.30;;
20884;SDS011;10602;48.000;9.654;2022-09-30T02:19:56;7.73;;;5.67;;
20884;SDS011;10602;48.000;9.654;2022-09-30T02:22:27;7.33;;;5.47;;
20884;SDS011;10602;48.000;9.654;2022-09-30T02:24:58;5.80;;;5.30;;
20884;SDS011;10602;48.000;9.654;2022-09-30T02:27:25;6.17;;;5.40;;
20884;SDS011;10602;48.000;9.654;2022-09-30T02:29:56;6.63;;;6.00;;
20884;SDS011;10602;48.000;9.654;2022-09-30T02:32:29;6.87;;;5.60;;
20884;SDS011;10602;48.000;9.654;2022-09-30T02:35:25;6.17;;;5.67;;
20884;SDS011;10602;48.000;9.654;2022-09-30T02:37:55;5.93;;;5.23;;
20884;SDS011;10602;48.000;9.654;2022-09-30T02:40:30;6.20;;;5.60;;
20884;SDS011;10602;48.000;9.654;2022-09-30T02:42:55;6.10;;;5.57;;
20884;SDS011;10602;48.000;9.654;2022-09-30T02:45:23;6.30;;;5.70;;
20884;SDS011;10602;48.000;9.654;2022-09-30T02:50:51;6.53;;;5.93;;
20884;SDS011;10602;48.000;9.654;2022-09-30T02:53:22;5.83;;;5.33;;
20884;SDS011;10602;48.000;9.654;2022-09-30T02:56:07;5.73;;;5.23;;
20884;SDS011;10602;48.000;9.654;2022-09-30T02:58:39;6.40;;;5.83;;
20884;SDS011;10602;48.000;9.654;2022-09-30T03:01:09;5.60;;;5.10;;
20884;SDS011;10602;48.000;9.654;2022-09-30T03:03:40;5.33;;;4.93;;
20884;SDS011;10602;48.000;9.654;2022-09-30T03:06:09;5.83;;;5.27;;
20884;SDS011;10602;48.000;9.654;2022-09-30T03:08:37;6.13;;;5.53;;
20884;SDS011;10602;48.000;9.654;2022-09-30T03:11:05;6.53;;;5.73;;
20884;SDS011;10602;48.000;9.654;2022-09-30T03:19:05;6.30;;;5.70;;
20884;SDS011;10602;48.000;9.654;2022-09-30T03:22:01;6.93;;;5.40;;
20884;SDS011;10602;48.000;9.654;2022-09-30T03:24:50;6.40;;;5.80;;
20884;SDS011;10602;48.000;9.654;2022-09-30T03:30:12;5.70;;;5.20;;
20884;SDS011;10602;48.000;9.654;2022-09-30T03:43:47;6.17;;;5.57;;
20884;SDS011;10602;48.000;9.654;2022-09-30T03:46:23;9.10;;;6.10;;
20884;SDS011;10602;48.000;9.654;2022-09-30T03:48:54;6.33;;;5.73;;
20884;SDS011;10602;48.000;9.654;2022-09-30T03:51:24;8.07;;;5.43;;
20884;SDS011;10602;48.000;9.654;2022-09-30T03:53:54;7.67;;;6.20;;
20884;SDS011;10602;48.000;9.654;2022-09-30T03:56:24;7.00;;;5.60;;
20884;SDS011;10602;48.000;9.654;2022-09-30T03:58:54;5.90;;;5.37;;
20884;SDS011;10602;48.000;9.654;2022-09-30T04:01:22;6.33;;;5.73;;
20884;SDS011;10602;48.000;9.654;2022-09-30T04:03:51;6.57;;;5.97;;
20884;SDS011;10602;48.000;9.654;2022-09-30T04:06:20;6.70;;;6.10;;
20884;SDS011;10602;48.000;9.654;2022-09-30T04:08:49;9.20;;;6.20;;
20884;SDS011;10602;48.000;9.654;2022-09-30T04:11:18;6.70;;;6.00;;
20884;SDS011;10602;48.000;9.654;2022-09-30T04:13:46;7.53;;;6.00;;
20884;SDS011;10602;48.000;9.654;2022-09-30T04:16:13;6.97;;;6.27;;
20884;SDS011;10602;48.000;9.654;2022-09-30T04:18:41;6.50;;;5.90;;
20884;SDS011;10602;48.000;9.654;2022-09-30T04:21:09;5.97;;;5.37;;
20884;SDS011;10602;48.000;9.654;2022-09-30T04:23:39;6.80;;;6.10;;
20884;SDS011;10602;48.000;9.654;2022-09-30T04:26:10;6.97;;;6.27;;
20884;SDS011;10602;48.000;9.654;2022-09-30T04:28:38;6.50;;;5.83;;
20884;SDS011;10602;48.000;9.654;2022-09-30T04:31:06;6.63;;;5.97;;
20884;SDS011;10602;48.000;9.654;2022-09-30T04:33:37;6.37;;;5.60;;
20884;SDS011;10602;48.000;9.654;2022-09-30T04:36:05;6.33;;;5.83;;
20884;SDS011;10602;48.000;9.654;2022-09-30T04:38:33;6.50;;;5.90;;
20884;SDS011;10602;48.000;9.654;2022-09-30T04:41:01;6.37;;;5.77;;
20884;SDS011;10602;48.000;9.654;2022-09-30T04:43:30;9.30;;;6.10;;
20884;SDS011;10602;48.000;9.654;2022-09-30T04:45:59;6.50;;;5.80;;
20884;SDS011;10602;48.000;9.654;2022-09-30T04:48:26;6.60;;;5.93;;
20884;SDS011;10602;48.000;9.654;2022-09-30T04:50:56;7.10;;;6.40;;
20884;SDS011;10602;48.000;9.654;2022-09-30T04:53:27;7.60;;;6.13;;
20884;SDS011;10602;48.000;9.654;2022-09-30T04:55:58;7.90;;;6.23;;
20884;SDS011;10602;48.000;9.654;2022-09-30T04:58:27;8.50;;;6.73;;
20884;SDS011;10602;48.000;9.654;2022-09-30T05:01:06;7.33;;;6.53;;
20884;SDS011;10602;48.000;9.654;2022-09-30T05:03:30;8.40;;;6.50;;
20884;SDS011;10602;48.000;9.654;2022-09-30T05:05:58;7.60;;;6.80;;
20884;SDS011;10602;48.000;9.654;2022-09-30T05:08:25;8.07;;;7.27;;
20884;SDS011;10602;48.000;9.654;2022-09-30T05:10:55;7.23;;;6.53;;
20884;SDS011;10602;48.000;9.654;2022-09-30T05:13:24;7.03;;;6.37;;
20884;SDS011;10602;48.000;9.654;2022-09-30T05:15:53;7.73;;;6.60;;
20884;SDS011;10602;48.000;9.654;2022-09-30T05:18:21;6.80;;;6.10;;
20884;SDS011;10602;48.000;9.654;2022-09-30T05:20:56;6.63;;;5.77;;
20884;SDS011;10602;48.000;9.654;2022-09-30T05:23:20;9.20;;;6.57;;
20884;SDS011;10602;48.000;9.654;2022-09-30T05:25:47;6.67;;;5.60;;
20884;SDS011;10602;48.000;9.654;2022-09-30T05:28:15;7.37;;;6.57;;
20884;SDS011;10602;48.000;9.654;2022-09-30T05:30:45;7.23;;;6.53;;
20884;SDS011;10602;48.000;9.654;2022-09-30T05:33:14;40.40;;;17.83;;
20884;SDS011;10602;48.000;9.654;2022-09-30T05:35:42;7.27;;;6.50;;
20884;SDS011;10602;48.000;9.654;2022-09-30T05:38:10;7.00;;;6.30;;
20884;SDS011;10602;48.000;9.654;2022-09-30T05:40:37;7.07;;;6.37;;
20884;SDS011;10602;48.000;9.654;2022-09-30T05:43:06;6.90;;;6.20;;
20884;SDS011;10602;48.000;9.654;2022-09-30T05:45:33;6.07;;;5.47;;
20884;SDS011;10602;48.000;9.654;2022-09-30T05:48:01;7.30;;;5.47;;
20884;SDS011;10602;48.000;9.654;2022-09-30T05:50:29;9.53;;;5.57;;
20884;SDS011;10602;48.000;9.654;2022-09-30T05:52:57;6.07;;;4.83;;
20884;SDS011;10602;48.000;9.654;2022-09-30T05:55:25;5.63;;;5.13;;
20884;SDS011;10602;48.000;9.654;2022-09-30T05:57:53;5.87;;;5.27;;
20884;SDS011;10602;48.000;9.654;2022-09-30T06:00:21;6.10;;;5.50;;
20884;SDS011;10602;48.000;9.654;2022-09-30T06:02:52;7.60;;;5.50;;
20884;SDS011;10602;48.000;9.654;2022-09-30T06:05:19;5.50;;;4.90;;
20884;SDS011;10602;48.000;9.654;2022-09-30T06:07:47;5.17;;;4.67;;
20884;SDS011;10602;48.000;9.654;2022-09-30T06:10:15;7.03;;;5.40;;
20884;SDS011;10602;48.000;9.654;2022-09-30T06:12:43;8.67;;;5.13;;
20884;SDS011;10602;48.000;9.654;2022-09-30T06:15:10;6.80;;;5.10;;
20884;SDS011;10602;48.000;9.654;2022-09-30T06:17:38;10.23;;;5.40;;
20884;SDS011;10602;48.000;9.654;2022-09-30T06:20:08;6.73;;;4.33;;
20884;SDS011;10602;48.000;9.654;2022-09-30T06:22:36;7.57;;;4.47;;
20884;SDS011;10602;48.000;9.654;2022-09-30T06:25:04;8.20;;;4.57;;
20884;SDS011;10602;48.000;9.654;2022-09-30T06:27:32;5.77;;;4.63;;
20884;SDS011;10602;48.000;9.654;2022-09-30T06:29:59;5.33;;;4.53;;
20884;SDS011;10602;48.000;9.654;2022-09-30T06:32:27;5.60;;;4.13;;
20884;SDS011;10602;48.000;9.654;2022-09-30T06:34:55;5.30;;;3.93;;
20884;SDS011;10602;48.000;9.654;2022-09-30T06:37:22;5.87;;;4.27;;
20884;SDS011;10602;48.000;9.654;2022-09-30T06:39:50;5.20;;;4.10;;
20884;SDS011;10602;48.000;9.654;2022-09-30T06:42:18;5.17;;;4.53;;
20884;SDS011;10602;48.000;9.654;2022-09-30T06:44:47;4.40;;;4.00;;
20884;SDS011;10602;48.000;9.654;2022-09-30T06:47:16;4.83;;;3.77;;
20884;SDS011;10602;48.000;9.654;2022-09-30T06:49:43;4.43;;;4.03;;
20884;SDS011;10602;48.000;9.654;2022-09-30T06:52:11;4.73;;;3.90;;
20884;SDS011;10602;48.000;9.654;2022-09-30T06:54:39;4.90;;;3.83;;
20884;SDS011;10602;48.000;9.654;2022-09-30T06:57:08;3.80;;;3.40;;
20884;SDS011;10602;48.000;9.654;2022-09-30T06:59:35;4.90;;;4.50;;
20884;SDS011;10602;48.000;9.654;2022-09-30T07:02:03;5.13;;;4.63;;
20884;SDS011;10602;48.000;9.654;2022-09-30T07:04:32;4.20;;;3.80;;
20884;SDS011;10602;48.000;9.654;2022-09-30T07:07:01;4.40;;;3.90;;
20884;SDS011;10602;48.000;9.654;2022-09-30T07:09:29;4.10;;;3.70;;
20884;SDS011;10602;48.000;9.654;2022-09-30T07:11:56;4.10;;;3.80;;
20884;SDS011;10602;48.000;9.654;2022-09-30T07:14:24;4.70;;;3.60;;
20884;SDS011;10602;48.000;9.654;2022-09-30T07:16:51;4.77;;;4.10;;
20884;SDS011;10602;48.000;9.654;2022-09-30T07:19:19;4.90;;;4.20;;
20884;SDS011;10602;48.000;9.654;2022-09-30T07:21:47;5.53;;;4.40;;
20884;SDS011;10602;48.000;9.654;2022-09-30T07:24:16;4.40;;;4.00;;
20884;SDS011;10602;48.000;9.654;2022-09-30T07:26:44;5.70;;;4.03;;
20884;SDS011;10602;48.000;9.654;2022-09-30T07:29:11;4.30;;;3.70;;
20884;SDS011;10602;48.000;9.654;2022-09-30T07:31:39;5.10;;;4.17;;
20884;SDS011;10602;48.000;9.654;2022-09-30T07:34:07;5.67;;;3.93;;
20884;SDS011;10602;48.000;9.654;2022-09-30T07:36:36;4.90;;;3.93;;
20884;SDS011;10602;48.000;9.654;2022-09-30T07:39:07;4.33;;;3.93;;
20884;SDS011;10602;48.000;9.654;2022-09-30T07:41:36;4.93;;;3.93;;
20884;SDS011;10602;48.000;9.654;2022-09-30T07:44:06;4.37;;;3.97;;
20884;SDS011;10602;48.000;9.654;2022-09-30T07:46:39;4.50;;;4.10;;
20884;SDS011;10602;48.000;9.654;2022-09-30T07:49:11;6.57;;;4.30;;
20884;SDS011;10602;48.000;9.654;2022-09-30T07:51:40;4.47;;;4.07;;
20884;SDS011;10602;48.000;9.654;2022-09-30T07:54:15;4.10;;;3.57;;
20884;SDS011;10602;48.000;9.654;2022-09-30T07:56:44;4.43;;;4.03;;
20884;SDS011;10602;48.000;9.654;2022-09-30T07:59:12;4.60;;;4.10;;
20884;SDS011;10602;48.000;9.654;2022-09-30T08:01:39;4.17;;;3.77;;
20884;SDS011;10602;48.000;9.654;2022-09-30T08:04:08;4.03;;;3.63;;
20884;SDS011;10602;48.000;9.654;2022-09-30T08:06:38;4.90;;;4.33;;
20884;SDS011;10602;48.000;9.654;2022-09-30T08:09:11;4.33;;;3.93;;
20884;SDS011;10602;48.000;9.654;2022-09-30T08:11:40;4.47;;;4.00;;
20884;SDS011;10602;48.000;9.654;2022-09-30T08:14:11;9.47;;;5.80;;
20884;SDS011;10602;48.000;9.654;2022-09-30T08:16:44;4.60;;;4.10;;
20884;SDS011;10602;48.000;9.654;2022-09-30T08:19:13;6.23;;;5.63;;
20884;SDS011;10602;48.000;9.654;2022-09-30T08:21:43;6.07;;;5.47;;
20884;SDS011;10602;48.000;9.654;2022-09-30T08:24:11;4.37;;;3.97;;
20884;SDS011;10602;48.000;9.654;2022-09-30T08:26:40;4.77;;;4.13;;
20884;SDS011;10602;48.000;9.654;2022-09-30T08:29:08;4.63;;;4.13;;
20884;SDS011;10602;48.000;9.654;2022-09-30T08:31:40;4.80;;;4.30;;
20884;SDS011;10602;48.000;9.654;2022-09-30T08:34:08;4.70;;;4.30;;
20884;SDS011;10602;48.000;9.654;2022-09-30T08:36:36;4.83;;;4.33;;
20884;SDS011;10602;48.000;9.654;2022-09-30T08:39:03;6.40;;;4.60;;
20884;SDS011;10602;48.000;9.654;2022-09-30T08:47:02;4.80;;;3.87;;
20884;SDS011;10602;48.000;9.654;2022-09-30T08:52:35;4.93;;;3.63;;
20884;SDS011;10602;48.000;9.654;2022-09-30T08:55:07;4.67;;;3.97;;
20884;SDS011;10602;48.000;9.654;2022-09-30T08:57:39;4.83;;;4.33;;
20884;SDS011;10602;48.000;9.654;2022-09-30T09:00:13;22.30;;;20.40;;
20884;SDS011;10602;48.000;9.654;2022-09-30T09:02:43;5.10;;;4.60;;
20884;SDS011;10602;48.000;9.654;2022-09-30T09:05:23;5.17;;;4.60;;
20884;SDS011;10602;48.000;9.654;2022-09-30T09:08:07;4.70;;;4.30;;
20884;SDS011;10602;48.000;9.654;2022-09-30T09:10:42;4.83;;;4.33;;
20884;SDS011;10602;48.000;9.654;2022-09-30T09:16:27;6.20;;;4.57;;
20884;SDS011;10602;48.000;9.654;2022-09-30T09:19:02;6.00;;;5.40;;
20884;SDS011;10602;48.000;9.654;2022-09-30T09:24:24;13.00;;;9.53;;
20884;SDS011;10602;48.000;9.654;2022-09-30T09:26:53;5.70;;;4.80;;
20884;SDS011;10602;48.000;9.654;2022-09-30T09:32:11;10.07;;;7.10;;
20884;SDS011;10602;48.000;9.654;2022-09-30T09:34:39;6.87;;;5.87;;
20884;SDS011;10602;48.000;9.654;2022-09-30T09:37:10;5.97;;;5.00;;
20884;SDS011;10602;48.000;9.654;2022-09-30T09:40:02;5.17;;;4.67;;
20884;SDS011;10602;48.000;9.654;2022-09-30T09:42:48;8.50;;;5.70;;
20884;SDS011;10602;48.000;9.654;2022-09-30T09:47:53;5.57;;;5.07;;
20884;SDS011;10602;48.000;9.654;2022-09-30T09:50:25;5.60;;;5.07;;
20884;SDS011;10602;48.000;9.654;2022-09-30T09:55:43;5.73;;;5.13;;
20884;SDS011;10602;48.000;9.654;2022-09-30T09:58:11;5.47;;;4.97;;
20884;SDS011;10602;48.000;9.654;2022-09-30T10:00:42;6.70;;;5.70;;
20884;SDS011;10602;48.000;9.654;2022-09-30T10:03:15;11.60;;;9.57;;
20884;SDS011;10602;48.000;9.654;2022-09-30T10:06:09;11.10;;;8.13;;
20884;SDS011;10602;48.000;9.654;2022-09-30T10:08:32;5.20;;;4.70;;
20884;SDS011;10602;48.000;9.654;2022-09-30T10:11:02;6.10;;;5.47;;
20884;SDS011;10602;48.000;9.654;2022-09-30T10:13:46;6.63;;;5.93;;
20884;SDS011;10602;48.000;9.654;2022-09-30T10:16:27;6.97;;;6.27;;
20884;SDS011;10602;48.000;9.654;2022-09-30T10:19:01;7.03;;;6.33;;
20884;SDS011;10602;48.000;9.654;2022-09-30T10:21:30;6.53;;;5.83;;
20884;SDS011;10602;48.000;9.654;2022-09-30T10:23:58;5.60;;;5.07;;
20884;SDS011;10602;48.000;9.654;2022-09-30T10:26:28;5.67;;;5.07;;
20884;SDS011;10602;48.000;9.654;2022-09-30T10:28:58;6.57;;;5.90;;
20884;SDS011;10602;48.000;9.654;2022-09-30T10:31:30;4.93;;;4.40;;
20884;SDS011;10602;48.000;9.654;2022-09-30T10:36:54;7.03;;;5.57;;
20884;SDS011;10602;48.000;9.654;2022-09-30T10:42:05;17.67;;;15.90;;
20884;SDS011;10602;48.000;9.654;2022-09-30T10:45:17;5.97;;;5.37;;
20884;SDS011;10602;48.000;9.654;2022-09-30T10:47:09;5.97;;;5.20;;
20884;SDS011;10602;48.000;9.654;2022-09-30T10:52:24;6.47;;;4.93;;
20884;SDS011;10602;48.000;9.654;2022-09-30T10:54:55;6.23;;;4.73;;
20884;SDS011;10602;48.000;9.654;2022-09-30T10:57:31;5.47;;;4.50;;
20884;SDS011;10602;48.000;9.654;2022-09-30T11:00:03;5.33;;;4.80;;
20884;SDS011;10602;48.000;9.654;2022-09-30T11:02:45;5.87;;;4.70;;
20884;SDS011;10602;48.000;9.654;2022-09-30T11:13:05;4.63;;;4.17;;
20884;SDS011;10602;48.000;9.654;2022-09-30T11:18:55;4.90;;;3.67;;
20884;SDS011;10602;48.000;9.654;2022-09-30T11:21:34;5.40;;;4.20;;
20884;SDS011;10602;48.000;9.654;2022-09-30T11:40:36;6.00;;;5.17;;
20884;SDS011;10602;48.000;9.654;2022-09-30T11:51:10;5.80;;;5.30;;
20884;SDS011;10602;48.000;9.654;2022-09-30T11:54:03;5.50;;;5.00;;
20884;SDS011;10602;48.000;9.654;2022-09-30T11:56:46;4.93;;;4.43;;
20884;SDS011;10602;48.000;9.654;2022-09-30T11:59:25;5.50;;;5.00;;
20884;SDS011;10602;48.000;9.654;2022-09-30T12:01:58;6.23;;;4.87;;
20884;SDS011;10602;48.000;9.654;2022-09-30T12:04:35;6.50;;;5.77;;
20884;SDS011;10602;48.000;9.654;2022-09-30T12:09:42;6.73;;;5.77;;
20884;SDS011;10602;48.000;9.654;2022-09-30T12:12:12;8.70;;;6.07;;
20884;SDS011;10602;48.000;9.654;2022-09-30T12:14:46;6.40;;;5.73;;
20884;SDS011;10602;48.000;9.654;2022-09-30T12:17:34;9.67;;;7.90;;
20884;SDS011;10602;48.000;9.654;2022-09-30T12:20:09;6.43;;;5.70;;
20884;SDS011;10602;48.000;9.654;2022-09-30T12:22:45;6.80;;;6.10;;
20884;SDS011;10602;48.000;9.654;2022-09-30T12:25:17;6.37;;;5.77;;
20884;SDS011;10602;48.000;9.654;2022-09-30T12:27:45;7.83;;;7.00;;
20884;SDS011;10602;48.000;9.654;2022-09-30T12:30:21;6.57;;;5.77;;
20884;SDS011;10602;48.000;9.654;2022-09-30T12:35:47;6.10;;;5.47;;
20884;SDS011;10602;48.000;9.654;2022-09-30T12:49:44;7.57;;;6.83;;
20884;SDS011;10602;48.000;9.654;2022-09-30T12:52:19;5.37;;;4.87;;
20884;SDS011;10602;48.000;9.654;2022-09-30T12:54:53;9.83;;;8.83;;
20884;SDS011;10602;48.000;9.654;2022-09-30T12:57:26;6.90;;;5.97;;
20884;SDS011;10602;48.000;9.654;2022-09-30T12:59:56;4.77;;;4.37;;
20884;SDS011;10602;48.000;9.654;2022-09-30T13:02:37;4.60;;;4.20;;
20884;SDS011;10602;48.000;9.654;2022-09-30T13:10:42;7.60;;;6.80;;
20884;SDS011;10602;48.000;9.654;2022-09-30T13:13:13;11.80;;;9.53;;
20884;SDS011;10602;48.000;9.654;2022-09-30T13:15:38;6.33;;;5.33;;
20884;SDS011;10602;48.000;9.654;2022-09-30T13:31:30;7.00;;;5.07;;
20884;SDS011;10602;48.000;9.654;2022-09-30T13:39:42;6.77;;;6.07;;
20884;SDS011;10602;48.000;9.654;2022-09-30T13:42:20;7.73;;;5.90;;
20884;SDS011;10602;48.000;9.654;2022-09-30T13:52:41;6.67;;;5.93;;
20884;SDS011;10602;48.000;9.654;2022-09-30T13:55:16;6.17;;;5.57;;
20884;SDS011;10602;48.000;9.654;2022-09-30T13:57:53;6.73;;;6.03;;
20884;SDS011;10602;48.000;9.654;2022-09-30T14:01:06;7.07;;;6.30;;
20884;SDS011;10602;48.000;9.654;2022-09-30T14:05:53;8.27;;;7.43;;
20884;SDS011;10602;48.000;9.654;2022-09-30T14:08:43;8.43;;;5.70;;
20884;SDS011;10602;48.000;9.654;2022-09-30T14:11:16;6.00;;;5.40;;
20884;SDS011;10602;48.000;9.654;2022-09-30T14:19:23;6.50;;;5.90;;
20884;SDS011;10602;48.000;9.654;2022-09-30T14:21:57;7.77;;;6.97;;
20884;SDS011;10602;48.000;9.654;2022-09-30T14:24:33;7.27;;;6.30;;
20884;SDS011;10602;48.000;9.654;2022-09-30T14:27:18;7.00;;;6.30;;
20884;SDS011;10602;48.000;9.654;2022-09-30T14:30:10;9.70;;;8.70;;
20884;SDS011;10602;48.000;9.654;2022-09-30T14:35:22;7.47;;;6.77;;
20884;SDS011;10602;48.000;9.654;2022-09-30T14:37:57;7.43;;;6.73;;
20884;SDS011;10602;48.000;9.654;2022-09-30T14:40:33;6.50;;;5.90;;
20884;SDS011;10602;48.000;9.654;2022-09-30T14:43:06;7.90;;;7.10;;
20884;SDS011;10602;48.000;9.654;2022-09-30T14:45:36;7.20;;;6.50;;
20884;SDS011;10602;48.000;9.654;2022-09-30T14:48:13;10.67;;;7.10;;
20884;SDS011;10602;48.000;9.654;2022-09-30T14:53:27;9.73;;;8.73;;
20884;SDS011;10602;48.000;9.654;2022-09-30T14:55:56;6.97;;;6.23;;
20884;SDS011;10602;48.000;9.654;2022-09-30T14:58:28;6.30;;;5.70;;
20884;SDS011;10602;48.000;9.654;2022-09-30T15:03:28;6.50;;;5.80;;
20884;SDS011;10602;48.000;9.654;2022-09-30T15:05:57;6.23;;;5.57;;
20884;SDS011;10602;48.000;9.654;2022-09-30T15:08:25;5.67;;;5.17;;
20884;SDS011;10602;48.000;9.654;2022-09-30T15:10:53;6.73;;;6.03;;
20884;SDS011;10602;48.000;9.654;2022-09-30T15:13:30;6.30;;;5.70;;
20884;SDS011;10602;48.000;9.654;2022-09-30T15:15:56;6.30;;;5.70;;
20884;SDS011;10602;48.000;9.654;2022-09-30T15:18:25;7.67;;;6.87;;
20884;SDS011;10602;48.000;9.654;2022-09-30T15:20:58;21.83;;;18.17;;
20884;SDS011;10602;48.000;9.654;2022-09-30T15:23:34;5.70;;;5.10;;
20884;SDS011;10602;48.000;9.654;2022-09-30T15:26:04;5.33;;;4.83;;
20884;SDS011;10602;48.000;9.654;2022-09-30T15:28:33;6.30;;;5.70;;
20884;SDS011;10602;48.000;9.654;2022-09-30T15:31:01;5.40;;;4.90;;
20884;SDS011;10602;48.000;9.654;2022-09-30T15:33:30;6.03;;;5.40;;
20884;SDS011;10602;48.000;9.654;2022-09-30T15:36:01;6.70;;;5.53;;
20884;SDS011;10602;48.000;9.654;2022-09-30T15:38:31;5.50;;;5.00;;
20884;SDS011;10602;48.000;9.654;2022-09-30T15:41:03;5.80;;;5.30;;
20884;SDS011;10602;48.000;9.654;2022-09-30T15:43:31;6.33;;;5.73;;
20884;SDS011;10602;48.000;9.654;2022-09-30T15:46:17;6.23;;;5.50;;
20884;SDS011;10602;48.000;9.654;2022-09-30T15:48:46;7.37;;;6.57;;
20884;SDS011;10602;48.000;9.654;2022-09-30T15:51:22;7.17;;;6.10;;
20884;SDS011;10602;48.000;9.654;2022-09-30T15:53:51;7.70;;;6.77;;
20884;SDS011;10602;48.000;9.654;2022-09-30T15:56:24;6.33;;;5.73;;
20884;SDS011;10602;48.000;9.654;2022-09-30T15:59:06;6.43;;;5.67;;
20884;SDS011;10602;48.000;9.654;2022-09-30T16:01:40;6.63;;;6.00;;
20884;SDS011;10602;48.000;9.654;2022-09-30T16:04:11;5.87;;;4.90;;
20884;SDS011;10602;48.000;9.654;2022-09-30T16:06:44;6.90;;;5.30;;
20884;SDS011;10602;48.000;9.654;2022-09-30T16:09:18;6.47;;;5.70;;
20884;SDS011;10602;48.000;9.654;2022-09-30T16:12:13;8.53;;;7.40;;
20884;SDS011;10602;48.000;9.654;2022-09-30T16:14:30;7.37;;;6.43;;
20884;SDS011;10602;48.000;9.654;2022-09-30T16:16:54;7.93;;;6.87;;
20884;SDS011;10602;48.000;9.654;2022-09-30T16:19:26;9.00;;;7.63;;
20884;SDS011;10602;48.000;9.654;2022-09-30T16:21:54;8.43;;;6.67;;
20884;SDS011;10602;48.000;9.654;2022-09-30T16:26:54;10.40;;;8.00;;
20884;SDS011;10602;48.000;9.654;2022-09-30T16:29:23;7.77;;;6.70;;
20884;SDS011;10602;48.000;9.654;2022-09-30T16:31:52;10.67;;;8.50;;
20884;SDS011;10602;48.000;9.654;2022-09-30T16:34:22;6.83;;;5.63;;
20884;SDS011;10602;48.000;9.654;2022-09-30T16:36:51;6.13;;;5.53;;
20884;SDS011;10602;48.000;9.654;2022-09-30T16:39:21;10.47;;;8.10;;
20884;SDS011;10602;48.000;9.654;2022-09-30T16:41:48;6.97;;;5.60;;
20884;SDS011;10602;48.000;9.654;2022-09-30T16:44:17;5.93;;;5.33;;
20884;SDS011;10602;48.000;9.654;2022-09-30T16:46:46;5.53;;;4.90;;
20884;SDS011;10602;48.000;9.654;2022-09-30T16:49:14;7.33;;;5.47;;
20884;SDS011;10602;48.000;9.654;2022-09-30T16:51:44;6.90;;;5.30;;
20884;SDS011;10602;48.000;9.654;2022-09-30T16:54:11;8.50;;;7.70;;
20884;SDS011;10602;48.000;9.654;2022-09-30T16:56:39;9.23;;;8.10;;
20884;SDS011;10602;48.000;9.654;2022-09-30T16:59:16;13.57;;;11.30;;
20884;SDS011;10602;48.000;9.654;2022-09-30T17:01:38;9.37;;;6.97;;
20884;SDS011;10602;48.000;9.654;2022-09-30T17:04:05;6.53;;;5.50;;
20884;SDS011;10602;48.000;9.654;2022-09-30T17:06:33;6.57;;;5.60;;
20884;SDS011;10602;48.000;9.654;2022-09-30T17:09:03;6.17;;;5.57;;
20884;SDS011;10602;48.000;9.654;2022-09-30T17:11:31;10.87;;;8.30;;
20884;SDS011;10602;48.000;9.654;2022-09-30T17:14:01;22.47;;;16.63;;
20884;SDS011;10602;48.000;9.654;2022-09-30T17:16:30;14.23;;;12.73;;
20884;SDS011;10602;48.000;9.654;2022-09-30T17:18:58;14.60;;;12.90;;
20884;SDS011;10602;48.000;9.654;2022-09-30T17:21:25;8.53;;;7.63;;
20884;SDS011;10602;48.000;9.654;2022-09-30T17:23:53;10.40;;;9.30;;
20884;SDS011;10602;48.000;9.654;2022-09-30T17:26:22;13.60;;;11.97;;
20884;SDS011;10602;48.000;9.654;2022-09-30T17:28:50;20.67;;;15.53;;
20884;SDS011;10602;48.000;9.654;2022-09-30T17:31:17;22.63;;;17.03;;
20884;SDS011;10602;48.000;9.654;2022-09-30T17:33:45;19.83;;;16.87;;
20884;SDS011;10602;48.000;9.654;2022-09-30T17:36:12;15.63;;;12.77;;
20884;SDS011;10602;48.000;9.654;2022-09-30T17:38:40;13.63;;;10.80;;
20884;SDS011;10602;48.000;9.654;2022-09-30T17:41:08;10.23;;;7.83;;
20884;SDS011;10602;48.000;9.654;2022-09-30T17:43:56;17.30;;;14.37;;
20884;SDS011;10602;48.000;9.654;2022-09-30T17:46:25;19.50;;;14.73;;
20884;SDS011;10602;48.000;9.654;2022-09-30T17:48:55;11.03;;;9.70;;
20884;SDS011;10602;48.000;9.654;2022-09-30T17:51:23;20.67;;;17.13;;
20884;SDS011;10602;48.000;9.654;2022-09-30T17:53:50;32.00;;;27.00;;
20884;SDS011;10602;48.000;9.654;2022-09-30T17:56:19;23.77;;;21.20;;
20884;SDS011;10602;48.000;9.654;2022-09-30T17:58:48;16.07;;;14.37;;
20884;SDS011;10602;48.000;9.654;2022-09-30T18:01:17;14.90;;;12.53;;
20884;SDS011;10602;48.000;9.654;2022-09-30T18:03:46;17.67;;;15.10;;
20884;SDS011;10602;48.000;9.654;2022-09-30T18:06:15;16.73;;;14.83;;
20884;SDS011;10602;48.000;9.654;2022-09-30T18:08:46;18.70;;;15.27;;
20884;SDS011;10602;48.000;9.654;2022-09-30T18:11:19;16.63;;;13.70;;
20884;SDS011;10602;48.000;9.654;2022-09-30T18:13:55;13.73;;;12.27;;